createdAt,value
2018-01-08T00:00:45.904Z,16.93
2018-01-08T00:03:13.346Z,16.50
2018-01-08T00:05:40.783Z,17.17
2018-01-08T00:08:08.223Z,16.80
2018-01-08T00:10:35.675Z,18.07
2018-01-08T00:13:03.116Z,17.90
2018-01-08T00:15:31.332Z,15.77
2018-01-08T00:17:58.767Z,17.50
2018-01-08T00:20:26.219Z,18.37
2018-01-08T00:22:53.659Z,17.97
2018-01-08T00:25:21.871Z,18.17
2018-01-08T00:27:49.316Z,17.17
2018-01-08T00:30:16.772Z,17.47
2018-01-08T00:32:44.211Z,17.60
2018-01-08T00:35:12.423Z,17.37
2018-01-08T00:37:39.874Z,18.33
2018-01-08T00:40:07.315Z,18.37
2018-01-08T00:42:34.759Z,17.53
2018-01-08T00:45:02.212Z,16.70
2018-01-08T00:47:29.655Z,18.30
2018-01-08T00:49:57.880Z,19.23
2018-01-08T00:52:25.315Z,17.53
2018-01-08T00:54:52.755Z,18.80
2018-01-08T00:57:21.784Z,16.70
2018-01-08T00:59:49.227Z,18.13
2018-01-08T01:02:16.672Z,17.03
2018-01-08T01:04:44.110Z,18.53
2018-01-08T01:07:11.564Z,18.60
2018-01-08T01:09:39.780Z,17.70
2018-01-08T01:12:07.232Z,18.93
2018-01-08T01:14:34.708Z,18.80
2018-01-08T01:17:02.123Z,16.90
2018-01-08T01:19:29.583Z,19.07
2018-01-08T01:21:57.023Z,15.47
2018-01-08T01:24:25.245Z,17.00
2018-01-08T01:26:52.705Z,17.30
2018-01-08T01:29:20.144Z,17.80
2018-01-08T01:31:47.602Z,18.40
2018-01-08T01:34:15.031Z,17.23
2018-01-08T01:36:42.475Z,17.93
2018-01-08T01:39:10.682Z,19.00
2018-01-08T01:41:38.896Z,17.80
2018-01-08T01:44:06.330Z,18.67
2018-01-08T01:46:33.775Z,17.47
2018-01-08T01:49:13.160Z,17.60
2018-01-08T01:51:40.611Z,19.17
2018-01-08T01:54:08.051Z,17.80
2018-01-08T01:56:35.499Z,19.27
2018-01-08T01:59:02.939Z,19.27
2018-01-08T02:01:30.386Z,19.23
2018-01-08T02:03:57.827Z,20.10
2018-01-08T02:06:25.300Z,19.03
2018-01-08T02:08:52.738Z,19.50
2018-01-08T02:11:20.194Z,19.13
2018-01-08T02:13:47.644Z,19.07
2018-01-08T02:16:15.088Z,19.20
2018-01-08T02:18:43.300Z,21.07
2018-01-08T02:21:10.748Z,19.60
2018-01-08T02:23:38.190Z,20.80
2018-01-08T02:26:05.636Z,19.87
2018-01-08T02:28:33.846Z,20.03
2018-01-08T02:31:01.293Z,20.57
2018-01-08T02:33:28.740Z,20.37
2018-01-08T02:35:56.184Z,19.53
2018-01-08T02:38:24.404Z,19.00
2018-01-08T02:40:51.839Z,19.97
2018-01-08T02:43:19.288Z,19.40
2018-01-08T02:45:46.736Z,21.03
2018-01-08T02:48:14.174Z,21.60
2018-01-08T02:50:42.393Z,19.00
2018-01-08T02:53:09.852Z,20.80
2018-01-08T02:55:37.296Z,20.03
2018-01-08T02:58:04.748Z,19.90
2018-01-08T03:00:32.191Z,19.60
2018-01-08T03:02:59.644Z,20.60
2018-01-08T03:05:27.087Z,21.43
2018-01-08T03:07:55.303Z,19.60
2018-01-08T03:10:22.753Z,21.10
2018-01-08T03:12:50.216Z,20.90
2018-01-08T03:15:17.725Z,23.50
2018-01-08T03:17:45.159Z,21.70
2018-01-08T03:20:12.611Z,20.60
2018-01-08T03:22:40.060Z,21.60
2018-01-08T03:25:07.504Z,21.57
2018-01-08T03:27:34.945Z,22.17
2018-01-08T03:30:02.393Z,23.10
2018-01-08T03:32:29.833Z,20.23
2018-01-08T03:34:58.039Z,21.20
2018-01-08T03:37:25.492Z,21.50
2018-01-08T03:39:52.935Z,21.27
2018-01-08T03:42:20.379Z,22.80
2018-01-08T03:44:47.832Z,23.53
2018-01-08T03:47:16.045Z,20.60
2018-01-08T03:49:43.500Z,22.20
2018-01-08T03:52:10.946Z,21.50
2018-01-08T03:54:38.393Z,21.67
2018-01-08T03:57:05.826Z,22.23
2018-01-08T03:59:34.049Z,22.07
2018-01-08T04:02:01.492Z,21.00
2018-01-08T04:04:28.944Z,22.30
2018-01-08T04:06:56.391Z,22.90
2018-01-08T04:09:23.839Z,21.83
2018-01-08T04:11:51.282Z,22.17
2018-01-08T04:14:19.507Z,21.90
2018-01-08T04:16:46.948Z,22.57
2018-01-08T04:19:14.391Z,21.57
2018-01-08T04:21:41.826Z,22.83
2018-01-08T04:24:10.038Z,21.93
2018-01-08T04:26:37.502Z,21.60
2018-01-08T04:29:04.933Z,21.70
2018-01-08T04:31:32.375Z,21.20
2018-01-08T04:34:00.583Z,21.37
2018-01-08T04:36:28.036Z,21.77
2018-01-08T04:38:55.499Z,23.73
2018-01-08T04:41:22.935Z,22.50
2018-01-08T04:43:50.378Z,21.13
2018-01-08T04:46:18.587Z,21.03
2018-01-08T04:48:46.032Z,22.10
2018-01-08T04:51:13.485Z,23.50
2018-01-08T04:53:40.924Z,21.53
2018-01-08T04:56:08.376Z,22.97
2018-01-08T04:58:36.575Z,22.70
2018-01-08T05:01:04.043Z,22.17
2018-01-08T05:03:31.479Z,21.93
2018-01-08T05:05:58.931Z,23.33
2018-01-08T05:08:26.375Z,23.50
2018-01-08T05:10:53.818Z,23.40
2018-01-08T05:13:22.029Z,23.17
2018-01-08T05:15:49.471Z,19.77
2018-01-08T05:18:16.920Z,23.13
2018-01-08T05:20:44.367Z,21.97
2018-01-08T05:23:12.574Z,23.37
2018-01-08T05:25:40.023Z,23.00
2018-01-08T05:28:07.463Z,23.87
2018-01-08T05:30:34.909Z,22.30
2018-01-08T05:33:03.120Z,20.97
2018-01-08T05:35:30.562Z,21.87
2018-01-08T05:37:58.012Z,24.10
2018-01-08T05:40:25.451Z,21.50
2018-01-08T05:42:53.661Z,24.40
2018-01-08T05:45:21.108Z,23.10
2018-01-08T05:47:48.554Z,21.67
2018-01-08T05:50:15.995Z,22.67
2018-01-08T05:52:44.205Z,21.33
2018-01-08T05:55:11.644Z,22.00
2018-01-08T05:57:39.091Z,23.60
2018-01-08T06:00:06.535Z,22.90
2018-01-08T06:02:34.751Z,24.17
2018-01-08T06:05:02.191Z,23.13
2018-01-08T06:07:29.636Z,23.10
2018-01-08T06:09:57.080Z,23.03
2018-01-08T06:12:24.529Z,22.70
2018-01-08T06:14:52.738Z,24.70
2018-01-08T06:17:20.188Z,22.13
2018-01-08T06:19:47.635Z,23.53
2018-01-08T06:22:15.840Z,22.33
2018-01-08T06:24:43.288Z,22.40
2018-01-08T06:27:10.726Z,22.70
2018-01-08T06:29:38.167Z,22.47
2018-01-08T06:32:06.395Z,22.57
2018-01-08T06:34:33.840Z,22.60
2018-01-08T06:37:01.292Z,22.60
2018-01-08T06:39:28.723Z,21.87
2018-01-08T06:41:56.181Z,22.83
2018-01-08T06:44:23.624Z,20.87
2018-01-08T06:46:51.841Z,20.20
2018-01-08T06:49:19.283Z,23.10
2018-01-08T06:51:46.724Z,22.07
2018-01-08T06:54:14.171Z,21.20
2018-01-08T06:56:42.387Z,22.93
2018-01-08T06:59:09.831Z,20.63
2018-01-08T07:01:37.272Z,22.13
2018-01-08T07:04:04.715Z,21.10
2018-01-08T07:06:32.923Z,22.10
2018-01-08T07:09:00.406Z,22.07
2018-01-08T07:11:27.854Z,23.27
2018-01-08T07:13:55.304Z,20.93
2018-01-08T07:16:22.747Z,21.77
2018-01-08T07:18:50.204Z,22.43
2018-01-08T07:21:17.648Z,21.93
2018-01-08T07:23:45.104Z,21.20
2018-01-08T07:26:12.546Z,21.87
2018-01-08T07:28:40.756Z,21.30
2018-01-08T07:31:08.201Z,21.90
2018-01-08T07:33:35.643Z,21.93
2018-01-08T07:36:03.090Z,22.07
2018-01-08T07:38:31.300Z,22.90
2018-01-08T07:40:58.737Z,20.47
2018-01-08T07:43:26.184Z,22.57
2018-01-08T07:45:53.631Z,20.50
2018-01-08T07:48:21.844Z,20.77
2018-01-08T07:50:49.286Z,22.43
2018-01-08T07:53:16.785Z,22.00
2018-01-08T07:55:44.171Z,18.97
2018-01-08T07:58:11.619Z,20.40
2018-01-08T08:00:39.828Z,21.30
2018-01-08T08:03:07.278Z,20.83
2018-01-08T08:05:34.723Z,24.40
2018-01-08T08:08:02.163Z,22.20
2018-01-08T08:10:30.381Z,22.43
2018-01-08T08:12:57.819Z,21.30
2018-01-08T08:15:27.095Z,20.30
2018-01-08T08:17:55.311Z,21.53
2018-01-08T08:20:22.750Z,20.10
2018-01-08T08:22:50.196Z,21.37
2018-01-08T08:25:17.646Z,20.13
2018-01-08T08:27:45.087Z,22.30
2018-01-08T08:30:13.303Z,20.80
2018-01-08T08:32:40.746Z,21.13
2018-01-08T08:35:08.190Z,21.60
2018-01-08T08:37:35.635Z,20.23
2018-01-08T08:40:03.849Z,19.73
2018-01-08T08:42:31.287Z,21.53
2018-01-08T08:44:58.732Z,20.90
2018-01-08T08:47:26.167Z,22.13
2018-01-08T08:49:54.375Z,20.33
2018-01-08T08:52:21.814Z,21.10
2018-01-08T08:54:50.033Z,20.90
2018-01-08T08:57:17.471Z,19.90
2018-01-08T08:59:44.920Z,21.00
2018-01-08T09:02:12.487Z,19.90
2018-01-08T09:04:39.934Z,21.17
2018-01-08T09:07:07.377Z,20.87
2018-01-08T09:09:35.584Z,21.37
2018-01-08T09:12:03.030Z,22.17
2018-01-08T09:14:30.544Z,20.23
2018-01-08T09:16:57.930Z,20.57
2018-01-08T09:19:25.375Z,20.80
2018-01-08T09:21:52.814Z,20.20
2018-01-08T09:24:21.026Z,20.77
2018-01-08T09:26:48.474Z,20.73
2018-01-08T09:29:15.911Z,20.13
2018-01-08T09:31:44.132Z,19.93
2018-01-08T09:34:11.576Z,19.40
2018-01-08T09:36:39.026Z,20.40
2018-01-08T09:39:06.470Z,20.73
2018-01-08T09:41:33.915Z,20.50
2018-01-08T09:44:02.122Z,19.20
2018-01-08T09:46:29.558Z,21.20
2018-01-08T09:48:57.021Z,20.33
2018-01-08T09:51:24.463Z,22.33
2018-01-08T09:53:51.900Z,19.90
2018-01-08T09:56:20.130Z,18.80
2018-01-08T09:58:47.569Z,20.27
2018-01-08T10:01:15.015Z,18.80
2018-01-08T10:03:54.135Z,20.13
2018-01-08T10:06:33.331Z,19.90
2018-01-08T10:09:12.646Z,20.13
2018-01-08T10:11:51.863Z,19.80
2018-01-08T10:14:31.031Z,18.63
2018-01-08T10:17:10.224Z,20.53
2018-01-08T10:19:42.259Z,20.10
2018-01-08T10:22:10.463Z,18.97
2018-01-08T10:24:37.907Z,18.53
2018-01-08T10:27:05.357Z,19.90
2018-01-08T10:29:32.790Z,18.30
2018-01-08T10:32:01.003Z,20.97
2018-01-08T10:34:28.500Z,18.57
2018-01-08T10:36:55.931Z,19.47
2018-01-08T10:39:23.370Z,19.43
2018-01-08T10:41:56.518Z,20.47
2018-01-08T10:44:30.387Z,18.13
2018-01-08T10:47:03.587Z,17.90
2018-01-08T10:49:36.768Z,18.00
2018-01-08T10:52:03.720Z,19.80
2018-01-08T10:54:31.163Z,19.10
2018-01-08T10:56:58.606Z,19.17
2018-01-08T10:59:26.051Z,17.77
2018-01-08T11:01:59.152Z,19.90
2018-01-08T11:04:26.591Z,19.10
2018-01-08T11:06:54.038Z,20.27
2018-01-08T11:09:21.475Z,20.47
2018-01-08T11:11:49.682Z,20.40
2018-01-08T11:14:17.128Z,19.97
2018-01-08T11:16:44.577Z,21.10
2018-01-08T11:19:12.786Z,20.60
2018-01-08T11:21:40.232Z,19.70
2018-01-08T11:24:07.672Z,19.07
2018-01-08T11:26:35.114Z,17.80
2018-01-08T11:29:03.347Z,18.67
2018-01-08T11:31:30.791Z,18.37
2018-01-08T11:33:58.232Z,18.50
2018-01-08T11:36:25.683Z,20.73
2018-01-08T11:38:53.124Z,18.37
2018-01-08T11:41:20.563Z,19.17
2018-01-08T11:43:48.780Z,18.43
2018-01-08T11:46:16.227Z,17.83
2018-01-08T11:48:43.671Z,19.30
2018-01-08T11:51:11.112Z,19.60
2018-01-08T11:53:39.327Z,18.60
2018-01-08T11:56:06.766Z,20.30
2018-01-08T11:58:34.211Z,19.43
2018-01-08T12:01:01.647Z,20.10
2018-01-08T12:03:29.863Z,19.03
2018-01-08T12:05:57.303Z,18.77
2018-01-08T12:08:24.746Z,19.03
2018-01-08T12:10:52.957Z,18.93
2018-01-08T12:13:20.398Z,19.37
2018-01-08T12:15:47.851Z,20.93
2018-01-08T12:18:15.300Z,19.30
2018-01-08T12:20:42.738Z,20.13
2018-01-08T12:23:10.951Z,22.03
2018-01-08T12:25:38.399Z,18.70
2018-01-08T12:28:05.842Z,20.77
2018-01-08T12:30:33.287Z,16.40
2018-01-08T12:33:00.731Z,18.00
2018-01-08T12:35:28.940Z,19.67
2018-01-08T12:37:56.386Z,18.63
2018-01-08T12:40:23.828Z,18.43
2018-01-08T12:42:52.036Z,19.57
2018-01-08T12:45:19.478Z,17.80
2018-01-08T12:47:46.927Z,18.77
2018-01-08T12:50:14.375Z,17.67
2018-01-08T12:52:42.583Z,19.20
2018-01-08T12:55:10.029Z,17.57
2018-01-08T12:57:37.488Z,18.50
2018-01-08T13:00:04.926Z,18.80
2018-01-08T13:02:32.370Z,17.93
2018-01-08T13:04:59.819Z,18.17
2018-01-08T13:07:27.250Z,16.93
2018-01-08T13:09:54.696Z,18.67
2018-01-08T13:12:22.135Z,19.00
2018-01-08T13:14:49.574Z,22.90
2018-01-08T13:17:17.019Z,19.60
2018-01-08T13:19:44.467Z,20.33
2018-01-08T13:22:12.684Z,19.80
2018-01-08T13:24:40.122Z,17.37
2018-01-08T13:27:07.558Z,17.40
2018-01-08T13:29:35.771Z,18.67
2018-01-08T13:32:03.206Z,16.90
2018-01-08T13:34:30.661Z,16.47
2018-01-08T13:36:58.095Z,16.93
2018-01-08T13:39:26.313Z,17.17
2018-01-08T13:41:53.756Z,17.40
2018-01-08T13:44:21.199Z,17.70
2018-01-08T13:46:48.642Z,16.87
2018-01-08T13:49:16.855Z,16.53
2018-01-08T13:51:44.295Z,18.10
2018-01-08T13:54:11.739Z,24.07
2018-01-08T13:56:39.183Z,27.67
2018-01-08T13:59:07.391Z,30.83
2018-01-08T14:01:34.830Z,26.77
2018-01-08T14:04:02.298Z,30.00
2018-01-08T14:06:29.739Z,21.17
2018-01-08T14:08:57.179Z,18.37
2018-01-08T14:11:25.391Z,16.93
2018-01-08T14:13:52.835Z,17.37
2018-01-08T14:16:20.287Z,17.20
2018-01-08T14:18:47.726Z,16.83
2018-01-08T14:21:15.935Z,18.40
2018-01-08T14:23:43.376Z,17.63
2018-01-08T14:26:10.818Z,17.33
2018-01-08T14:28:38.268Z,18.87
2018-01-08T14:31:06.475Z,17.47
2018-01-08T14:33:33.916Z,17.47
2018-01-08T14:36:01.367Z,18.23
2018-01-08T14:38:28.817Z,17.87
2018-01-08T14:40:57.018Z,18.97
2018-01-08T14:43:24.452Z,17.30
2018-01-08T14:45:51.895Z,18.63
2018-01-08T14:48:20.099Z,18.20
2018-01-08T14:50:47.538Z,17.87
2018-01-08T14:53:14.978Z,18.73
2018-01-08T14:55:43.190Z,18.33
2018-01-08T14:58:10.627Z,20.03
2018-01-08T15:00:38.072Z,21.03
2018-01-08T15:03:06.275Z,21.60
2018-01-08T15:05:33.727Z,21.37
2018-01-08T15:08:01.184Z,23.90
2018-01-08T15:10:28.646Z,20.53
2018-01-08T15:12:56.082Z,18.60
2018-01-08T15:15:23.523Z,28.00
2018-01-08T15:17:51.738Z,25.03
2018-01-08T15:20:19.180Z,28.03
2018-01-08T15:22:46.622Z,26.30
2018-01-08T15:25:14.062Z,20.70
2018-01-08T15:27:42.306Z,22.03
2018-01-08T15:30:09.718Z,19.30
2018-01-08T15:32:37.159Z,17.73
2018-01-08T15:35:05.372Z,16.67
2018-01-08T15:37:32.816Z,17.30
2018-01-08T15:40:00.259Z,17.33
2018-01-08T15:42:27.698Z,15.63
2018-01-08T15:44:55.907Z,26.30
2018-01-08T15:47:23.363Z,30.03
2018-01-08T15:49:50.810Z,22.77
2018-01-08T15:52:18.252Z,22.17
2018-01-08T15:54:45.694Z,23.27
2018-01-08T15:57:13.904Z,23.67
2018-01-08T15:59:41.338Z,20.03
2018-01-08T16:02:08.792Z,18.70
2018-01-08T16:04:37.003Z,18.03
2018-01-08T16:07:04.454Z,17.53
2018-01-08T16:09:31.891Z,16.30
2018-01-08T16:11:59.380Z,15.60
2018-01-08T16:14:27.543Z,17.70
2018-01-08T16:16:54.990Z,16.70
2018-01-08T16:19:22.435Z,18.67
2018-01-08T16:21:49.886Z,20.70
2018-01-08T16:24:17.332Z,19.47
2018-01-08T16:26:45.542Z,16.70
2018-01-08T16:29:12.995Z,16.90
2018-01-08T16:31:40.438Z,17.70
2018-01-08T16:34:07.902Z,15.97
2018-01-08T16:36:35.338Z,17.13
2018-01-08T16:39:02.786Z,17.97
2018-01-08T16:41:31.005Z,15.97
2018-01-08T16:43:58.479Z,17.67
2018-01-08T16:46:25.906Z,16.13
2018-01-08T16:48:53.355Z,17.90
2018-01-08T16:51:20.795Z,15.23
2018-01-08T16:53:48.239Z,17.73
2018-01-08T16:56:16.448Z,19.33
2018-01-08T16:58:43.894Z,17.90
2018-01-08T17:01:11.372Z,19.40
2018-01-08T17:03:38.846Z,16.03
2018-01-08T17:06:06.280Z,16.87
2018-01-08T17:08:33.764Z,16.90
2018-01-08T17:11:01.193Z,15.80
2018-01-08T17:13:28.638Z,18.23
2018-01-08T17:15:56.070Z,16.70
2018-01-08T17:18:24.283Z,17.50
2018-01-08T17:20:51.726Z,18.53
2018-01-08T17:23:19.176Z,21.00
2018-01-08T17:25:46.653Z,23.20
2018-01-08T17:28:14.092Z,28.20
2018-01-08T17:30:41.531Z,21.83
2018-01-08T17:33:08.971Z,19.93
2018-01-08T17:35:37.223Z,17.90
2018-01-08T17:38:04.656Z,17.70
2018-01-08T17:40:32.099Z,16.73
2018-01-08T17:42:59.539Z,17.40
2018-01-08T17:45:26.979Z,17.47
2018-01-08T17:47:55.192Z,16.40
2018-01-08T17:50:22.635Z,17.20
2018-01-08T17:52:50.076Z,17.13
2018-01-08T17:55:17.524Z,16.57
2018-01-08T17:57:45.729Z,18.20
2018-01-08T18:00:13.181Z,18.10
2018-01-08T18:02:40.622Z,15.87
2018-01-08T18:05:08.104Z,16.40
2018-01-08T18:07:35.528Z,16.50
2018-01-08T18:10:02.979Z,16.37
2018-01-08T18:12:31.225Z,15.67
2018-01-08T18:14:58.660Z,15.77
2018-01-08T18:17:26.111Z,21.10
2018-01-08T18:19:53.602Z,21.93
2018-01-08T18:22:21.031Z,21.70
2018-01-08T18:24:48.482Z,23.73
2018-01-08T18:27:15.973Z,18.60
2018-01-08T18:29:43.406Z,16.73
2018-01-08T18:32:10.894Z,15.60
2018-01-08T18:34:38.369Z,15.60
2018-01-08T18:37:06.568Z,16.13
2018-01-08T18:39:34.058Z,15.90
2018-01-08T18:42:01.495Z,15.70
2018-01-08T18:44:28.995Z,18.23
2018-01-08T18:46:56.481Z,16.37
2018-01-08T18:49:23.949Z,15.07
2018-01-08T18:51:51.395Z,15.67
2018-01-08T18:54:18.877Z,16.27
2018-01-08T18:56:46.306Z,14.90
2018-01-08T18:59:13.749Z,14.63
2018-01-08T19:01:41.971Z,15.27
2018-01-08T19:04:09.466Z,17.30
2018-01-08T19:06:36.904Z,15.37
2018-01-08T19:09:04.394Z,14.70
2018-01-08T19:11:31.877Z,15.07
2018-01-08T19:13:59.344Z,15.67
2018-01-08T19:16:26.826Z,15.27
2018-01-08T19:18:54.306Z,16.60
2018-01-08T19:21:21.736Z,15.60
2018-01-08T19:23:49.246Z,15.23
2018-01-08T19:26:17.452Z,15.00
2018-01-08T19:28:44.933Z,15.10
2018-01-08T19:31:12.386Z,15.50
2018-01-08T19:33:39.864Z,15.20
2018-01-08T19:36:07.345Z,14.40
2018-01-08T19:38:35.585Z,15.10
2018-01-08T19:41:03.062Z,15.03
2018-01-08T19:43:30.538Z,13.50
2018-01-08T19:45:58.836Z,16.23
2018-01-08T19:48:26.319Z,16.00
2018-01-08T19:50:53.751Z,17.00
2018-01-08T19:53:21.242Z,17.13
2018-01-08T19:55:48.757Z,15.33
2018-01-08T19:58:16.234Z,16.17
2018-01-08T20:00:43.706Z,14.93
2018-01-08T20:03:11.210Z,13.87
2018-01-08T20:05:39.462Z,16.13
2018-01-08T20:08:06.959Z,15.47
2018-01-08T20:10:34.383Z,14.20
2018-01-08T20:13:02.653Z,14.50
2018-01-08T20:15:30.134Z,14.03
2018-01-08T20:17:58.388Z,15.17
2018-01-08T20:20:25.857Z,14.67
2018-01-08T20:22:54.110Z,15.53
2018-01-08T20:25:21.586Z,15.30
2018-01-08T20:27:49.837Z,15.57
2018-01-08T20:30:17.320Z,14.10
2018-01-08T20:32:44.801Z,14.63
2018-01-08T20:35:12.286Z,14.77
2018-01-08T20:37:39.791Z,14.07
2018-01-08T20:40:08.058Z,14.77
2018-01-08T20:42:35.540Z,15.80
2018-01-08T20:45:03.823Z,16.17
2018-01-08T20:47:31.302Z,15.70
2018-01-08T20:49:58.783Z,16.10
2018-01-08T20:52:26.270Z,17.23
2018-01-08T20:54:53.750Z,14.20
2018-01-08T20:57:21.232Z,16.50
2018-01-08T20:59:48.710Z,16.00
2018-01-08T21:02:16.194Z,17.20
2018-01-08T21:04:43.668Z,15.73
2018-01-08T21:07:11.922Z,16.30
2018-01-08T21:09:39.391Z,15.83
2018-01-08T21:12:07.641Z,15.90
2018-01-08T21:14:35.113Z,15.10
2018-01-08T21:17:03.492Z,15.93
2018-01-08T21:19:30.966Z,17.17
2018-01-08T21:21:58.488Z,16.40
2018-01-08T21:24:25.960Z,16.80
2018-01-08T21:26:53.446Z,17.63
2018-01-08T21:29:21.696Z,19.57
2018-01-08T21:31:49.169Z,17.83
2018-01-08T21:34:17.422Z,16.93
2018-01-08T21:36:44.897Z,17.17
2018-01-08T21:39:13.151Z,17.90
2018-01-08T21:41:40.626Z,17.73
2018-01-08T21:44:08.115Z,16.70
2018-01-08T21:46:35.594Z,18.53
2018-01-08T21:49:03.089Z,17.87
2018-01-08T21:51:30.573Z,16.57
2018-01-08T21:53:58.823Z,17.27
2018-01-08T21:56:26.341Z,17.93
2018-01-08T21:58:53.750Z,16.73
2018-01-08T22:01:21.249Z,17.53
2018-01-08T22:03:48.749Z,17.60
2018-01-08T22:06:16.231Z,17.30
2018-01-08T22:08:44.460Z,20.00
2018-01-08T22:11:11.942Z,20.70
2018-01-08T22:13:39.425Z,22.63
2018-01-08T22:16:06.846Z,17.23
2018-01-08T22:18:35.115Z,16.70
2018-01-08T22:21:02.585Z,17.83
2018-01-08T22:23:30.089Z,17.67
2018-01-08T22:25:57.566Z,16.90
2018-01-08T22:28:25.052Z,16.40
2018-01-08T22:30:52.533Z,15.67
2018-01-08T22:33:20.782Z,15.93
2018-01-08T22:35:48.265Z,17.67
2018-01-08T22:38:15.780Z,15.73
2018-01-08T22:40:43.254Z,17.53
2018-01-08T22:43:10.737Z,16.83
2018-01-08T22:45:39.014Z,17.80
2018-01-08T22:48:06.481Z,18.10
2018-01-08T22:50:33.971Z,17.70
2018-01-08T22:53:01.449Z,18.70
2018-01-08T22:55:28.932Z,19.33
2018-01-08T22:57:57.179Z,18.20
2018-01-08T23:00:24.649Z,19.20
2018-01-08T23:02:52.123Z,17.93
2018-01-08T23:05:20.361Z,18.20
2018-01-08T23:07:47.842Z,18.80
2018-01-08T23:10:15.327Z,18.40
2018-01-08T23:12:43.563Z,18.63
2018-01-08T23:15:11.028Z,18.50
2018-01-08T23:17:38.500Z,18.60
2018-01-08T23:20:06.732Z,18.07
2018-01-08T23:22:34.205Z,17.13
2018-01-08T23:25:01.677Z,20.30
2018-01-08T23:27:29.140Z,18.93
2018-01-08T23:29:57.396Z,17.87
2018-01-08T23:32:24.869Z,18.20
2018-01-08T23:34:52.295Z,18.00
2018-01-08T23:37:19.780Z,19.37
2018-01-08T23:39:47.206Z,18.77
2018-01-08T23:42:14.662Z,18.50
2018-01-08T23:44:42.138Z,18.00
2018-01-08T23:47:09.571Z,18.03
2018-01-08T23:49:37.058Z,19.00
2018-01-08T23:52:04.499Z,15.93
2018-01-08T23:54:31.934Z,16.23
2018-01-08T23:56:59.379Z,17.03
2018-01-08T23:59:27.587Z,17.63
